CheckWX is a tool to help pilots better visualize weather data.  It is not intended as a substitute for an official pre-flight weather briefing.

12:54:01 UTC

CZFA METAR
Faro Airport
Faro, Canada
Current

12 hours ago

CZFA 170100Z CCA VRB03KT 30SM FEW060TCU BKN090 BKN120 BKN200 17/04 A2979 RMK TCU2AC4AC1CI1 AC TR CI TR VIRGA /2.2MM/ LAST STFD OBS/NXT 171300Z SLP105 DENSITY ALT 3300FT
Observed
Jun-17 @ 01:00 UTC
Wind
  • Variable at 3 KTS
Visibility
30 SM
Flight Rules
VFR
Cloud Levels
  • Few at 6,000' AGL
  • Broken at 9,000' AGL
  • Broken at 12,000' AGL
  • Broken at 20,000' AGL
Temperature
17°C / 63°F
Dewpoint
C / 39°F
Humidity
42%
Altimeter
29.79" Hg
Pressure
1008.82 hPa
Previous

13 hours ago

CZFA 170000Z 23007KT 190V310 30SM FEW060TCU BKN072 OVC180 17/04 A2980 RMK TCU2AC5AC1 VIRGA SLP106 DENSITY ALT 3300FT
Observed
Jun-17 @ 00:00 UTC
Wind
  • 230° at 7 KTS
Visibility
30 SM
Flight Rules
VFR
Cloud Levels
  • Few at 6,000' AGL
  • Broken at 7,200' AGL
  • Overcast at 18,000' AGL
Temperature
17°C / 63°F
Dewpoint
C / 39°F
Humidity
42%
Altimeter
29.8" Hg
Pressure
1009.12 hPa
Previous

14 hours ago

CZFA 162300Z 33003KT 280V070 30SM FEW060TCU SCT090 BKN200 17/06 A2979 RMK TCU2AC2CI1 VIRGA SLP101 DENSITY ALT 3400FT
Observed
Jun-16 @ 23:00 UTC
Wind
  • 330° at 3 KTS
Visibility
30 SM
Flight Rules
VFR
Cloud Levels
  • Few at 6,000' AGL
  • Scattered at 9,000' AGL
  • Broken at 20,000' AGL
Temperature
17°C / 63°F
Dewpoint
C / 43°F
Humidity
49%
Altimeter
29.79" Hg
Pressure
1008.82 hPa